LGV327 SPJC-SEGU
Flight info
| Callsign | LGV327 |
|---|---|
| Flight time | 1h 30m |
| Altitude | 40000 |
| Route | TELE2F ATATU UV1 CLA UT331 VAKUD UL780 EVRED EVRED2 |
| Aircraft | C750/M-SBDE3FGHRWXY/S |
Departure
| Time | 2026-05-08 04:56 |
|---|---|
| Airport | Jorge Chávez International Airport (SPJC) |
Arrival
| Time | 2026-05-08 06:26 |
|---|---|
| Airport | José Joaquín de Olmedo International Airport (SEGU) |
| Time | Latitude | Longitude | Altitude | Speed | Heading |
|---|---|---|---|---|---|
| 2026-05-08 04:32 | -12.02126 | -77.11184 | 84 ft | 0 kts | 244° |
| 2026-05-08 04:43 | -12.02126 | -77.11183 | 84 ft | 2 kts | 244° |
| 2026-05-08 04:43 | -12.02113 | -77.11161 | 88 ft | 4 kts | 229° |
| 2026-05-08 04:44 | -12.02094 | -77.11146 | 86 ft | 4 kts | 181° |
| 2026-05-08 04:44 | -12.02080 | -77.11148 | 85 ft | 1 kts | 154° |
| 2026-05-08 04:44 | -12.02079 | -77.11149 | 85 ft | 0 kts | 154° |
| 2026-05-08 04:46 | -12.02085 | -77.11146 | 86 ft | 3 kts | 154° |
| 2026-05-08 04:46 | -12.02116 | -77.11130 | 86 ft | 7 kts | 153° |
| 2026-05-08 04:46 | -12.02172 | -77.11106 | 87 ft | 11 kts | 169° |
| 2026-05-08 04:47 | -12.02259 | -77.11098 | 89 ft | 15 kts | 162° |
| 2026-05-08 04:47 | -12.02376 | -77.11112 | 87 ft | 20 kts | 188° |
| 2026-05-08 04:47 | -12.02460 | -77.11166 | 86 ft | 15 kts | 243° |
| 2026-05-08 04:47 | -12.02469 | -77.11183 | 87 ft | 0 kts | 245° |
| 2026-05-08 04:48 | -12.02469 | -77.11184 | 87 ft | 1 kts | 245° |
| 2026-05-08 04:48 | -12.02491 | -77.11230 | 88 ft | 13 kts | 244° |
| 2026-05-08 04:48 | -12.02550 | -77.11350 | 84 ft | 21 kts | 242° |
| 2026-05-08 04:49 | -12.02506 | -77.11454 | 74 ft | 18 kts | 337° |
| 2026-05-08 04:49 | -12.02378 | -77.11515 | 75 ft | 22 kts | 333° |
| 2026-05-08 04:49 | -12.02226 | -77.11589 | 73 ft | 26 kts | 335° |
| 2026-05-08 04:49 | -12.02048 | -77.11676 | 68 ft | 31 kts | 333° |
| 2026-05-08 04:50 | -12.01913 | -77.11758 | 65 ft | 14 kts | 278° |
| 2026-05-08 04:50 | -12.01951 | -77.11858 | 63 ft | 17 kts | 245° |
| 2026-05-08 04:50 | -12.02008 | -77.11975 | 61 ft | 20 kts | 244° |
| 2026-05-08 04:50 | -12.02072 | -77.12110 | 57 ft | 23 kts | 244° |
| 2026-05-08 04:51 | -12.02153 | -77.12278 | 52 ft | 29 kts | 244° |
| 2026-05-08 04:51 | -12.02198 | -77.12433 | 45 ft | 22 kts | 294° |
| 2026-05-08 04:51 | -12.02059 | -77.12518 | 42 ft | 26 kts | 337° |
| 2026-05-08 04:51 | -12.01886 | -77.12599 | 41 ft | 29 kts | 335° |
| 2026-05-08 04:52 | -12.01702 | -77.12689 | 42 ft | 31 kts | 333° |
| 2026-05-08 04:52 | -12.01498 | -77.12790 | 37 ft | 34 kts | 334° |
| 2026-05-08 04:52 | -12.01274 | -77.12902 | 35 ft | 37 kts | 335° |
| 2026-05-08 04:52 | -12.01034 | -77.13007 | 34 ft | 39 kts | 334° |
| 2026-05-08 04:53 | -12.00784 | -77.13131 | 33 ft | 29 kts | 334° |
| 2026-05-08 04:53 | -12.00640 | -77.13202 | 32 ft | 14 kts | 327° |
| 2026-05-08 04:53 | -12.00644 | -77.13279 | 31 ft | 0 kts | 244° |
| 2026-05-08 04:55 | -12.00649 | -77.13291 | 30 ft | 6 kts | 244° |
| 2026-05-08 04:55 | -12.00686 | -77.13357 | 30 ft | 12 kts | 213° |
| 2026-05-08 04:55 | -12.00768 | -77.13326 | 31 ft | 23 kts | 154° |
| 2026-05-08 04:55 | -12.01250 | -77.13090 | 34 ft | 130 kts | 154° |
| 2026-05-08 04:56 | -12.02130 | -77.12663 | 595 ft | 142 kts | 156° |
| 2026-05-08 04:56 | -12.03054 | -77.12193 | 1272 ft | 156 kts | 154° |
| 2026-05-08 04:56 | -12.04033 | -77.11689 | 2086 ft | 159 kts | 153° |
| 2026-05-08 04:56 | -12.05011 | -77.11195 | 2956 ft | 160 kts | 154° |
| 2026-05-08 04:57 | -12.06021 | -77.10689 | 3784 ft | 162 kts | 154° |
| 2026-05-08 04:57 | -12.07032 | -77.10169 | 4581 ft | 165 kts | 150° |
| 2026-05-08 04:57 | -12.07782 | -77.09266 | 5270 ft | 171 kts | 118° |
| 2026-05-08 04:57 | -12.08075 | -77.08063 | 5899 ft | 186 kts | 92° |
| 2026-05-08 04:58 | -12.07696 | -77.06649 | 5963 ft | 236 kts | 59° |
| 2026-05-08 04:58 | -12.06311 | -77.05514 | 5982 ft | 282 kts | 24° |
| 2026-05-08 04:58 | -12.04320 | -77.05413 | 6650 ft | 289 kts | 344° |
| 2026-05-08 04:58 | -12.02588 | -77.06352 | 7902 ft | 282 kts | 326° |
| 2026-05-08 04:59 | -12.00950 | -77.07525 | 8825 ft | 293 kts | 326° |
| 2026-05-08 04:59 | -11.99164 | -77.08573 | 9811 ft | 299 kts | 333° |
| 2026-05-08 04:59 | -11.97247 | -77.09484 | 10496 ft | 313 kts | 335° |
| 2026-05-08 04:59 | -11.95205 | -77.10485 | 10771 ft | 340 kts | 333° |
| 2026-05-08 05:00 | -11.93023 | -77.11648 | 10945 ft | 366 kts | 332° |
| 2026-05-08 05:00 | -11.90749 | -77.12862 | 11704 ft | 369 kts | 333° |
| 2026-05-08 05:00 | -11.88447 | -77.14046 | 12519 ft | 372 kts | 334° |
| 2026-05-08 05:00 | -11.86114 | -77.15239 | 13273 ft | 377 kts | 333° |
| 2026-05-08 05:01 | -11.83766 | -77.16463 | 14007 ft | 381 kts | 333° |
| 2026-05-08 05:01 | -11.81393 | -77.17704 | 14653 ft | 385 kts | 333° |
| 2026-05-08 05:01 | -11.78998 | -77.18943 | 15340 ft | 389 kts | 333° |
| 2026-05-08 05:01 | -11.76571 | -77.20197 | 16029 ft | 393 kts | 333° |
| 2026-05-08 05:02 | -11.74121 | -77.21468 | 16731 ft | 397 kts | 333° |
| 2026-05-08 05:02 | -11.71647 | -77.22753 | 17452 ft | 401 kts | 333° |
| 2026-05-08 05:02 | -11.69150 | -77.24047 | 18189 ft | 405 kts | 334° |
| 2026-05-08 05:02 | -11.66619 | -77.25358 | 18853 ft | 409 kts | 334° |
| 2026-05-08 05:03 | -11.64068 | -77.26679 | 19546 ft | 413 kts | 334° |
| 2026-05-08 05:03 | -11.61498 | -77.28011 | 20252 ft | 417 kts | 334° |
| 2026-05-08 05:03 | -11.58904 | -77.29355 | 20961 ft | 420 kts | 334° |
| 2026-05-08 05:03 | -11.56284 | -77.30711 | 21665 ft | 424 kts | 334° |
| 2026-05-08 05:04 | -11.54536 | -77.31613 | 22117 ft | 427 kts | 334° |
| 2026-05-08 05:04 | -11.50970 | -77.33461 | 23019 ft | 433 kts | 334° |
| 2026-05-08 05:04 | -11.48313 | -77.34840 | 23686 ft | 436 kts | 334° |
| 2026-05-08 05:04 | -11.45594 | -77.36244 | 24288 ft | 439 kts | 334° |
| 2026-05-08 05:05 | -11.42840 | -77.37669 | 24953 ft | 440 kts | 334° |
| 2026-05-08 05:05 | -11.40140 | -77.39066 | 25559 ft | 442 kts | 334° |
| 2026-05-08 05:05 | -11.37388 | -77.40483 | 26187 ft | 444 kts | 334° |
| 2026-05-08 05:05 | -11.34623 | -77.41910 | 26818 ft | 447 kts | 334° |
| 2026-05-08 05:06 | -11.31850 | -77.43347 | 27443 ft | 449 kts | 334° |
| 2026-05-08 05:06 | -11.29056 | -77.44792 | 28035 ft | 452 kts | 334° |
| 2026-05-08 05:06 | -11.26246 | -77.46249 | 28682 ft | 454 kts | 333° |
| 2026-05-08 05:06 | -11.23421 | -77.47708 | 29294 ft | 457 kts | 334° |
| 2026-05-08 05:07 | -11.20575 | -77.49173 | 29884 ft | 460 kts | 334° |
| 2026-05-08 05:07 | -11.17711 | -77.50649 | 30394 ft | 463 kts | 333° |
| 2026-05-08 05:07 | -11.14825 | -77.52140 | 30839 ft | 466 kts | 333° |
| 2026-05-08 05:07 | -11.11935 | -77.53632 | 31370 ft | 466 kts | 333° |
| 2026-05-08 05:08 | -11.09981 | -77.54639 | 31806 ft | 464 kts | 332° |
| 2026-05-08 05:08 | -11.07103 | -77.56124 | 32398 ft | 464 kts | 332° |
| 2026-05-08 05:08 | -11.04223 | -77.57603 | 32992 ft | 463 kts | 331° |
| 2026-05-08 05:08 | -11.01359 | -77.59085 | 33637 ft | 461 kts | 330° |
| 2026-05-08 05:09 | -10.98499 | -77.60562 | 34205 ft | 460 kts | 330° |
| 2026-05-08 05:09 | -10.95644 | -77.62032 | 34747 ft | 459 kts | 330° |
| 2026-05-08 05:09 | -10.92801 | -77.63493 | 35370 ft | 456 kts | 330° |
| 2026-05-08 05:09 | -10.89978 | -77.64951 | 36029 ft | 453 kts | 330° |
| 2026-05-08 05:10 | -10.87172 | -77.66398 | 36676 ft | 451 kts | 330° |
| 2026-05-08 05:10 | -10.81606 | -77.69259 | 38000 ft | 445 kts | 330° |
| 2026-05-08 05:10 | -10.78850 | -77.70678 | 38667 ft | 443 kts | 330° |
| 2026-05-08 05:11 | -10.76111 | -77.72088 | 39250 ft | 440 kts | 330° |
| 2026-05-08 05:11 | -10.73381 | -77.73492 | 39832 ft | 438 kts | 330° |
| 2026-05-08 05:11 | -10.70640 | -77.74903 | 39962 ft | 448 kts | 330° |
| 2026-05-08 05:11 | -10.67821 | -77.76356 | 39966 ft | 460 kts | 330° |
| 2026-05-08 05:12 | -10.64927 | -77.77844 | 39969 ft | 470 kts | 330° |
| 2026-05-08 05:12 | -10.59017 | -77.80877 | 39979 ft | 482 kts | 330° |
| 2026-05-08 05:13 | -10.52984 | -77.83978 | 39979 ft | 490 kts | 330° |
| 2026-05-08 05:13 | -10.46867 | -77.87118 | 39977 ft | 495 kts | 330° |
| 2026-05-08 05:14 | -10.40701 | -77.90284 | 39983 ft | 498 kts | 330° |
| 2026-05-08 05:14 | -10.34500 | -77.93465 | 39981 ft | 500 kts | 330° |
| 2026-05-08 05:15 | -10.28293 | -77.96648 | 39979 ft | 500 kts | 330° |
| 2026-05-08 05:15 | -10.22117 | -77.99814 | 39978 ft | 500 kts | 330° |
| 2026-05-08 05:16 | -10.15825 | -78.02930 | 39973 ft | 500 kts | 331° |
| 2026-05-08 05:16 | -10.09616 | -78.05991 | 39976 ft | 500 kts | 331° |
| 2026-05-08 05:17 | -10.03344 | -78.09041 | 39973 ft | 500 kts | 331° |
| 2026-05-08 05:17 | -9.97086 | -78.12104 | 39971 ft | 500 kts | 331° |
| 2026-05-08 05:18 | -9.90821 | -78.15159 | 39972 ft | 500 kts | 331° |
| 2026-05-08 05:18 | -9.84555 | -78.18217 | 39972 ft | 500 kts | 331° |
| 2026-05-08 05:19 | -9.78292 | -78.21271 | 39973 ft | 500 kts | 331° |
| 2026-05-08 05:19 | -9.72018 | -78.24330 | 39972 ft | 500 kts | 331° |
| 2026-05-08 05:20 | -9.65744 | -78.27387 | 39972 ft | 500 kts | 331° |
| 2026-05-08 05:20 | -9.59477 | -78.30440 | 39971 ft | 500 kts | 331° |
| 2026-05-08 05:21 | -9.53202 | -78.33494 | 39969 ft | 500 kts | 331° |
| 2026-05-08 05:21 | -9.46925 | -78.36550 | 39969 ft | 500 kts | 331° |
| 2026-05-08 05:22 | -9.40652 | -78.39601 | 39969 ft | 500 kts | 331° |
| 2026-05-08 05:22 | -9.34375 | -78.42654 | 39971 ft | 500 kts | 331° |
| 2026-05-08 05:23 | -9.28100 | -78.45704 | 39969 ft | 501 kts | 331° |
| 2026-05-08 05:23 | -9.21815 | -78.48758 | 39969 ft | 501 kts | 331° |
| 2026-05-08 05:24 | -9.15530 | -78.51811 | 39965 ft | 501 kts | 331° |
| 2026-05-08 05:24 | -9.09423 | -78.55163 | 39956 ft | 499 kts | 328° |
| 2026-05-08 05:25 | -9.03340 | -78.58572 | 39960 ft | 500 kts | 328° |
| 2026-05-08 05:25 | -8.97252 | -78.61960 | 39960 ft | 500 kts | 328° |
| 2026-05-08 05:26 | -8.91160 | -78.65370 | 39966 ft | 500 kts | 328° |
| 2026-05-08 05:26 | -8.85069 | -78.68763 | 39966 ft | 500 kts | 328° |
| 2026-05-08 05:27 | -8.78979 | -78.72164 | 39962 ft | 500 kts | 328° |
| 2026-05-08 05:27 | -8.72882 | -78.75561 | 39970 ft | 500 kts | 328° |
| 2026-05-08 05:28 | -8.66789 | -78.78959 | 39966 ft | 500 kts | 328° |
| 2026-05-08 05:28 | -8.60695 | -78.82354 | 39962 ft | 500 kts | 328° |
| 2026-05-08 05:29 | -8.54601 | -78.85748 | 39962 ft | 500 kts | 328° |
| 2026-05-08 05:29 | -8.48540 | -78.89123 | 39966 ft | 500 kts | 328° |
| 2026-05-08 05:30 | -8.42444 | -78.92516 | 39969 ft | 501 kts | 328° |
| 2026-05-08 05:30 | -8.36339 | -78.95913 | 39970 ft | 501 kts | 328° |
| 2026-05-08 05:31 | -8.30230 | -78.99310 | 39970 ft | 501 kts | 328° |
| 2026-05-08 05:31 | -8.24123 | -79.02705 | 39974 ft | 501 kts | 328° |
| 2026-05-08 05:32 | -8.18013 | -79.06101 | 39975 ft | 501 kts | 328° |
| 2026-05-08 05:32 | -8.12939 | -79.08920 | 39973 ft | 501 kts | 328° |
| 2026-05-08 05:33 | -8.05747 | -79.12798 | 39967 ft | 502 kts | 329° |
| 2026-05-08 05:33 | -7.99527 | -79.16019 | 39971 ft | 502 kts | 329° |
| 2026-05-08 05:34 | -7.93307 | -79.19237 | 39971 ft | 503 kts | 329° |
| 2026-05-08 05:34 | -7.87082 | -79.22454 | 39969 ft | 503 kts | 329° |
| 2026-05-08 05:35 | -7.80860 | -79.25671 | 39969 ft | 503 kts | 329° |
| 2026-05-08 05:35 | -7.74642 | -79.28883 | 39969 ft | 503 kts | 329° |
| 2026-05-08 05:36 | -7.68416 | -79.32099 | 39969 ft | 503 kts | 329° |
| 2026-05-08 05:36 | -7.62189 | -79.35314 | 39973 ft | 503 kts | 329° |
| 2026-05-08 05:37 | -7.55958 | -79.38530 | 39971 ft | 503 kts | 329° |
| 2026-05-08 05:37 | -7.49726 | -79.41745 | 39970 ft | 503 kts | 329° |
| 2026-05-08 05:38 | -7.43500 | -79.44956 | 39966 ft | 502 kts | 329° |
| 2026-05-08 05:38 | -7.37309 | -79.48149 | 39967 ft | 499 kts | 329° |
| 2026-05-08 05:39 | -7.31144 | -79.51327 | 39961 ft | 497 kts | 329° |
| 2026-05-08 05:39 | -7.24988 | -79.54499 | 39954 ft | 496 kts | 329° |
| 2026-05-08 05:40 | -7.18836 | -79.57669 | 39953 ft | 497 kts | 329° |
| 2026-05-08 05:40 | -7.12680 | -79.60839 | 39953 ft | 497 kts | 329° |
| 2026-05-08 05:41 | -7.06521 | -79.64010 | 39955 ft | 498 kts | 329° |
| 2026-05-08 05:41 | -7.00354 | -79.67184 | 39957 ft | 498 kts | 329° |
| 2026-05-08 05:42 | -6.94181 | -79.70361 | 39957 ft | 499 kts | 329° |
| 2026-05-08 05:42 | -6.87999 | -79.73540 | 39961 ft | 499 kts | 329° |
| 2026-05-08 05:43 | -6.81818 | -79.76719 | 39963 ft | 499 kts | 329° |
| 2026-05-08 05:43 | -6.75539 | -79.79741 | 39946 ft | 503 kts | 336° |
| 2026-05-08 05:44 | -6.68649 | -79.81167 | 39952 ft | 512 kts | 352° |
| 2026-05-08 05:44 | -6.61491 | -79.80719 | 39980 ft | 518 kts | 3° |
| 2026-05-08 05:45 | -6.54376 | -79.79887 | 39976 ft | 518 kts | 2° |
| 2026-05-08 05:45 | -6.47212 | -79.79054 | 39974 ft | 519 kts | 3° |
| 2026-05-08 05:46 | -6.40038 | -79.78212 | 39982 ft | 519 kts | 3° |
| 2026-05-08 05:46 | -6.32860 | -79.77378 | 39983 ft | 519 kts | 3° |
| 2026-05-08 05:47 | -6.25689 | -79.76538 | 39986 ft | 519 kts | 3° |
| 2026-05-08 05:47 | -6.18508 | -79.75703 | 39989 ft | 519 kts | 3° |
| 2026-05-08 05:48 | -6.11330 | -79.74864 | 39994 ft | 519 kts | 3° |
| 2026-05-08 05:48 | -6.04162 | -79.74028 | 40001 ft | 519 kts | 3° |
| 2026-05-08 05:49 | -5.96985 | -79.73193 | 40005 ft | 520 kts | 3° |
| 2026-05-08 05:49 | -5.89800 | -79.72355 | 40011 ft | 520 kts | 3° |
| 2026-05-08 05:50 | -5.82613 | -79.71518 | 40013 ft | 520 kts | 3° |
| 2026-05-08 05:50 | -5.75429 | -79.70681 | 40020 ft | 520 kts | 3° |
| 2026-05-08 05:51 | -5.68240 | -79.69844 | 40021 ft | 520 kts | 3° |
| 2026-05-08 05:51 | -5.61050 | -79.69007 | 40024 ft | 520 kts | 3° |
| 2026-05-08 05:52 | -5.53853 | -79.68169 | 40033 ft | 521 kts | 4° |
| 2026-05-08 05:52 | -5.47871 | -79.67473 | 40035 ft | 521 kts | 4° |
| 2026-05-08 05:53 | -5.40674 | -79.66636 | 40042 ft | 520 kts | 4° |
| 2026-05-08 05:53 | -5.33478 | -79.65799 | 40052 ft | 520 kts | 4° |
| 2026-05-08 05:54 | -5.26287 | -79.64963 | 40060 ft | 520 kts | 4° |
| 2026-05-08 05:54 | -5.19096 | -79.64127 | 40069 ft | 520 kts | 4° |
| 2026-05-08 05:55 | -5.11901 | -79.63290 | 40078 ft | 520 kts | 4° |
| 2026-05-08 05:55 | -5.04716 | -79.62455 | 40089 ft | 520 kts | 4° |
| 2026-05-08 05:56 | -4.97532 | -79.61620 | 40094 ft | 520 kts | 4° |
| 2026-05-08 05:56 | -4.90346 | -79.60785 | 40095 ft | 520 kts | 4° |
| 2026-05-08 05:57 | -4.83158 | -79.59950 | 40099 ft | 520 kts | 4° |
| 2026-05-08 05:57 | -4.75970 | -79.59115 | 40095 ft | 520 kts | 4° |
| 2026-05-08 05:58 | -4.68777 | -79.58279 | 40090 ft | 520 kts | 4° |
| 2026-05-08 05:58 | -4.61585 | -79.57444 | 40085 ft | 520 kts | 4° |
| 2026-05-08 05:59 | -4.54398 | -79.56611 | 40078 ft | 520 kts | 4° |
| 2026-05-08 05:59 | -4.47222 | -79.56560 | 40062 ft | 514 kts | 351° |
| 2026-05-08 06:00 | -4.40160 | -79.57606 | 40067 ft | 513 kts | 350° |
| 2026-05-08 06:00 | -4.33053 | -79.58436 | 40065 ft | 514 kts | 351° |
| 2026-05-08 06:01 | -4.25965 | -79.59391 | 40059 ft | 514 kts | 350° |
| 2026-05-08 06:01 | -4.18861 | -79.60282 | 40055 ft | 514 kts | 351° |
| 2026-05-08 06:02 | -4.11767 | -79.61200 | 40055 ft | 514 kts | 350° |
| 2026-05-08 06:02 | -4.04672 | -79.62110 | 40055 ft | 514 kts | 351° |
| 2026-05-08 06:03 | -3.97577 | -79.63017 | 40056 ft | 514 kts | 351° |
| 2026-05-08 06:03 | -3.90472 | -79.63934 | 39562 ft | 521 kts | 351° |
| 2026-05-08 06:03 | -3.86905 | -79.64387 | 38885 ft | 524 kts | 351° |
| 2026-05-08 06:04 | -3.83275 | -79.64851 | 38145 ft | 514 kts | 351° |
| 2026-05-08 06:04 | -3.79760 | -79.65301 | 37478 ft | 505 kts | 351° |
| 2026-05-08 06:04 | -3.76284 | -79.65746 | 36826 ft | 500 kts | 350° |
| 2026-05-08 06:04 | -3.74005 | -79.66041 | 36395 ft | 498 kts | 350° |
| 2026-05-08 06:05 | -3.69467 | -79.66625 | 35524 ft | 495 kts | 350° |
| 2026-05-08 06:05 | -3.66057 | -79.67062 | 34882 ft | 493 kts | 350° |
| 2026-05-08 06:05 | -3.62653 | -79.67495 | 34208 ft | 492 kts | 350° |
| 2026-05-08 06:05 | -3.59263 | -79.67931 | 33542 ft | 490 kts | 350° |
| 2026-05-08 06:06 | -3.55895 | -79.68367 | 32908 ft | 487 kts | 350° |
| 2026-05-08 06:06 | -3.52543 | -79.68796 | 32268 ft | 484 kts | 351° |
| 2026-05-08 06:06 | -3.49214 | -79.69219 | 31633 ft | 481 kts | 351° |
| 2026-05-08 06:06 | -3.45904 | -79.69643 | 31000 ft | 478 kts | 351° |
| 2026-05-08 06:07 | -3.42618 | -79.70065 | 30370 ft | 474 kts | 351° |
| 2026-05-08 06:07 | -3.39358 | -79.70482 | 29702 ft | 470 kts | 351° |
| 2026-05-08 06:07 | -3.36140 | -79.70892 | 29072 ft | 466 kts | 352° |
| 2026-05-08 06:07 | -3.32931 | -79.71306 | 28472 ft | 463 kts | 352° |
| 2026-05-08 06:08 | -3.29745 | -79.71718 | 27854 ft | 461 kts | 352° |
| 2026-05-08 06:08 | -3.26576 | -79.72119 | 27258 ft | 456 kts | 353° |
| 2026-05-08 06:08 | -3.23442 | -79.72513 | 26641 ft | 453 kts | 353° |
| 2026-05-08 06:08 | -3.20336 | -79.72919 | 26054 ft | 448 kts | 353° |
| 2026-05-08 06:09 | -3.17242 | -79.73321 | 25447 ft | 448 kts | 353° |
| 2026-05-08 06:09 | -3.14158 | -79.73717 | 24853 ft | 447 kts | 354° |
| 2026-05-08 06:09 | -3.11079 | -79.74104 | 24267 ft | 444 kts | 354° |
| 2026-05-08 06:09 | -3.08022 | -79.74492 | 23681 ft | 442 kts | 354° |
| 2026-05-08 06:10 | -3.04983 | -79.74881 | 23030 ft | 438 kts | 354° |
| 2026-05-08 06:10 | -3.01981 | -79.75273 | 22457 ft | 431 kts | 354° |
| 2026-05-08 06:10 | -2.99034 | -79.75654 | 21889 ft | 424 kts | 354° |
| 2026-05-08 06:10 | -2.96128 | -79.76021 | 21335 ft | 419 kts | 354° |
| 2026-05-08 06:11 | -2.93254 | -79.76385 | 20785 ft | 415 kts | 354° |
| 2026-05-08 06:11 | -2.90393 | -79.76752 | 20237 ft | 414 kts | 354° |
| 2026-05-08 06:11 | -2.87541 | -79.77118 | 19690 ft | 412 kts | 354° |
| 2026-05-08 06:11 | -2.84701 | -79.77481 | 19145 ft | 411 kts | 354° |
| 2026-05-08 06:12 | -2.81872 | -79.77843 | 18601 ft | 409 kts | 354° |
| 2026-05-08 06:12 | -2.79055 | -79.78160 | 18022 ft | 406 kts | 357° |
| 2026-05-08 06:12 | -2.76252 | -79.78339 | 17479 ft | 402 kts | 357° |
| 2026-05-08 06:12 | -2.73479 | -79.78574 | 16952 ft | 398 kts | 356° |
| 2026-05-08 06:13 | -2.70768 | -79.78803 | 16437 ft | 394 kts | 357° |
| 2026-05-08 06:13 | -2.68010 | -79.78997 | 15908 ft | 391 kts | 358° |
| 2026-05-08 06:13 | -2.65348 | -79.79181 | 15399 ft | 387 kts | 357° |
| 2026-05-08 06:13 | -2.62678 | -79.79384 | 14889 ft | 383 kts | 357° |
| 2026-05-08 06:14 | -2.60038 | -79.79590 | 14389 ft | 379 kts | 357° |
| 2026-05-08 06:14 | -2.57424 | -79.79784 | 13885 ft | 375 kts | 357° |
| 2026-05-08 06:14 | -2.54833 | -79.79974 | 13359 ft | 372 kts | 357° |
| 2026-05-08 06:14 | -2.52270 | -79.80165 | 12867 ft | 367 kts | 357° |
| 2026-05-08 06:15 | -2.49738 | -79.80356 | 12383 ft | 363 kts | 357° |
| 2026-05-08 06:15 | -2.47231 | -79.80543 | 11903 ft | 359 kts | 357° |
| 2026-05-08 06:15 | -2.44747 | -79.80728 | 11431 ft | 357 kts | 357° |
| 2026-05-08 06:15 | -2.42286 | -79.80912 | 10962 ft | 350 kts | 356° |
| 2026-05-08 06:16 | -2.39903 | -79.81091 | 10507 ft | 338 kts | 356° |
| 2026-05-08 06:16 | -2.37595 | -79.81263 | 10068 ft | 328 kts | 356° |
| 2026-05-08 06:16 | -2.35347 | -79.81431 | 9620 ft | 320 kts | 356° |
| 2026-05-08 06:16 | -2.33152 | -79.81594 | 9195 ft | 312 kts | 356° |
| 2026-05-08 06:17 | -2.28915 | -79.81913 | 8412 ft | 299 kts | 356° |
| 2026-05-08 06:17 | -2.26851 | -79.82066 | 8015 ft | 295 kts | 356° |
| 2026-05-08 06:17 | -2.24816 | -79.82215 | 7612 ft | 292 kts | 356° |
| 2026-05-08 06:18 | -2.22803 | -79.82302 | 7210 ft | 288 kts | 3° |
| 2026-05-08 06:18 | -2.20934 | -79.81692 | 6812 ft | 283 kts | 28° |
| 2026-05-08 06:18 | -2.19259 | -79.80714 | 6515 ft | 277 kts | 30° |
| 2026-05-08 06:18 | -2.17585 | -79.79742 | 6111 ft | 277 kts | 29° |
| 2026-05-08 06:19 | -2.15918 | -79.78799 | 5749 ft | 273 kts | 29° |
| 2026-05-08 06:19 | -2.14279 | -79.77867 | 5439 ft | 268 kts | 29° |
| 2026-05-08 06:19 | -2.12669 | -79.76939 | 5068 ft | 267 kts | 29° |
| 2026-05-08 06:19 | -2.11058 | -79.76018 | 4717 ft | 268 kts | 29° |
| 2026-05-08 06:20 | -2.09438 | -79.75095 | 4338 ft | 266 kts | 30° |
| 2026-05-08 06:20 | -2.07849 | -79.74187 | 3973 ft | 260 kts | 29° |
| 2026-05-08 06:20 | -2.06188 | -79.73576 | 3583 ft | 253 kts | 5° |
| 2026-05-08 06:20 | -2.04496 | -79.73839 | 3340 ft | 241 kts | 337° |
| 2026-05-08 06:21 | -2.03248 | -79.74715 | 3449 ft | 204 kts | 312° |
| 2026-05-08 06:21 | -2.02494 | -79.75836 | 3468 ft | 186 kts | 297° |
| 2026-05-08 06:21 | -2.01856 | -79.76928 | 3432 ft | 180 kts | 298° |
| 2026-05-08 06:21 | -2.01303 | -79.78095 | 2830 ft | 197 kts | 282° |
| 2026-05-08 06:22 | -2.01443 | -79.79461 | 2446 ft | 200 kts | 249° |
| 2026-05-08 06:22 | -2.02230 | -79.80546 | 2451 ft | 188 kts | 219° |
| 2026-05-08 06:22 | -2.03306 | -79.81195 | 2489 ft | 180 kts | 210° |
| 2026-05-08 06:22 | -2.04394 | -79.81820 | 2335 ft | 184 kts | 211° |
| 2026-05-08 06:23 | -2.05521 | -79.82474 | 2093 ft | 188 kts | 211° |
| 2026-05-08 06:23 | -2.06648 | -79.83124 | 1842 ft | 186 kts | 211° |
| 2026-05-08 06:23 | -2.07760 | -79.83764 | 1601 ft | 184 kts | 211° |
| 2026-05-08 06:23 | -2.08866 | -79.84402 | 1348 ft | 183 kts | 211° |
| 2026-05-08 06:24 | -2.09961 | -79.85031 | 1110 ft | 174 kts | 211° |
| 2026-05-08 06:24 | -2.10933 | -79.85591 | 898 ft | 148 kts | 211° |
| 2026-05-08 06:24 | -2.11768 | -79.86067 | 716 ft | 131 kts | 210° |
| 2026-05-08 06:24 | -2.12531 | -79.86510 | 550 ft | 124 kts | 211° |
| 2026-05-08 06:25 | -2.13263 | -79.86940 | 404 ft | 120 kts | 211° |
| 2026-05-08 06:25 | -2.13987 | -79.87357 | 269 ft | 121 kts | 210° |
| 2026-05-08 06:25 | -2.14722 | -79.87775 | 80 ft | 123 kts | 212° |
| 2026-05-08 06:25 | -2.15425 | -79.88182 | 25 ft | 106 kts | 212° |
| 2026-05-08 06:26 | -2.15912 | -79.88463 | 26 ft | 51 kts | 209° |
| 2026-05-08 06:26 | -2.16200 | -79.88630 | 26 ft | 45 kts | 209° |
| 2026-05-08 06:26 | -2.16456 | -79.88777 | 25 ft | 40 kts | 210° |
| 2026-05-08 06:26 | -2.16668 | -79.88899 | 24 ft | 26 kts | 210° |
| 2026-05-08 06:27 | -2.16717 | -79.88975 | 27 ft | 13 kts | 296° |
| 2026-05-08 06:27 | -2.16643 | -79.88996 | 27 ft | 12 kts | 34° |
| 2026-05-08 06:27 | -2.16589 | -79.88992 | 25 ft | 9 kts | 301° |
| 2026-05-08 06:27 | -2.16578 | -79.89046 | 25 ft | 7 kts | 260° |
| 2026-05-08 06:28 | -2.16562 | -79.89088 | 26 ft | 2 kts | 299° |
| 2026-05-08 06:28 | -2.16552 | -79.89091 | 26 ft | 2 kts | 4° |
| 2026-05-08 06:28 | -2.16538 | -79.89084 | 26 ft | 2 kts | 26° |
| 2026-05-08 06:28 | -2.16532 | -79.89082 | 26 ft | 0 kts | 28° |